CheckWX is a tool to help pilots better visualize weather data.  It is not intended as a substitute for an official pre-flight weather briefing.

01:06:19 UTC

LESO TAF
San Sebastian Airport
Hondarribia, Spain
TAF LESO 232300Z 2400/2424 23006KT CAVOK TX19/2414Z TN07/2406Z PROB40 TEMPO 2412/2418 02010KT

Feb-24@
00:00 UTC

Feb-24 @ 00:00 UTC

Feb-25@
00:00 UTC

Feb-25 @ 00:00 UTC

TAF LESO 232300Z 2400/2424 23006KT CAVOK TX19/2414Z TN07/2406Z
Wind
  • 230° at 6 KTS
Cloud Levels
  • No significant clouds

Feb-24@
12:00 UTC

Feb-24 @ 12:00 UTC

Feb-24@
18:00 UTC

Feb-24 @ 18:00 UTC

PROB40 TEMPO 2412/2418 02010KT

Temporary - 40% Likelihood

Temporary - 40% Likelihood during this time.

Wind
  • 020° at 10 KTS